createdAt,value
2018-02-17T00:00:53.257Z,18.33
2018-02-17T00:02:55.930Z,19.70
2018-02-17T00:04:58.561Z,21.37
2018-02-17T00:07:01.155Z,21.17
2018-02-17T00:09:03.730Z,20.60
2018-02-17T00:11:06.366Z,19.17
2018-02-17T00:13:08.954Z,19.03
2018-02-17T00:15:11.566Z,19.20
2018-02-17T00:17:14.969Z,20.67
2018-02-17T00:19:18.350Z,19.90
2018-02-17T00:21:21.758Z,18.97
2018-02-17T00:23:25.117Z,19.30
2018-02-17T00:25:27.754Z,20.40
2018-02-17T00:27:30.361Z,20.20
2018-02-17T00:29:32.965Z,19.63
2018-02-17T00:31:35.580Z,19.73
2018-02-17T00:33:38.246Z,19.90
2018-02-17T00:35:40.862Z,17.83
2018-02-17T00:37:43.474Z,18.03
2018-02-17T00:39:46.841Z,18.73
2018-02-17T00:41:49.453Z,18.40
2018-02-17T00:43:52.863Z,17.80
2018-02-17T00:45:55.468Z,19.80
2018-02-17T00:47:58.112Z,19.60
2018-02-17T00:50:00.719Z,20.00
2018-02-17T00:52:03.378Z,21.17
2018-02-17T00:54:05.990Z,21.67
2018-02-17T00:56:08.594Z,22.17
2018-02-17T00:58:11.975Z,21.90
2018-02-17T01:00:15.356Z,22.40
2018-02-17T01:02:17.983Z,20.87
2018-02-17T01:04:20.651Z,20.67
2018-02-17T01:06:24.009Z,23.47
2018-02-17T01:08:26.631Z,22.90
2018-02-17T01:10:29.245Z,21.80
2018-02-17T01:12:31.930Z,22.43
2018-02-17T01:14:34.551Z,23.77
2018-02-17T01:16:37.161Z,22.83
2018-02-17T01:18:39.776Z,22.67
2018-02-17T01:20:43.219Z,22.20
2018-02-17T01:22:45.842Z,22.97
2018-02-17T01:24:48.461Z,22.77
2018-02-17T01:26:51.053Z,24.97
2018-02-17T01:28:53.662Z,22.60
2018-02-17T01:30:56.364Z,22.70
2018-02-17T01:32:59.741Z,21.40
2018-02-17T01:35:02.360Z,20.80
2018-02-17T01:37:04.966Z,23.40
2018-02-17T01:39:07.588Z,22.57
2018-02-17T01:41:10.958Z,22.77
2018-02-17T01:43:14.398Z,23.30
2018-02-17T01:45:17.007Z,21.60
2018-02-17T01:47:19.620Z,21.73
2018-02-17T01:49:23.017Z,23.40
2018-02-17T01:51:25.611Z,23.10
2018-02-17T01:53:28.213Z,22.83
2018-02-17T01:55:30.813Z,22.20
2018-02-17T01:57:33.408Z,23.00
2018-02-17T01:59:36.778Z,20.27
2018-02-17T02:01:39.393Z,22.63
2018-02-17T02:03:42.026Z,22.73
2018-02-17T02:05:44.625Z,23.53
2018-02-17T02:07:47.990Z,22.90
2018-02-17T02:09:50.605Z,24.07
2018-02-17T02:11:53.198Z,22.70
2018-02-17T02:13:55.910Z,25.00
2018-02-17T02:15:58.524Z,23.60
2018-02-17T02:18:01.874Z,22.27
2018-02-17T02:20:04.495Z,23.63
2018-02-17T02:22:07.870Z,23.90
2018-02-17T02:24:11.252Z,24.27
2018-02-17T02:26:13.841Z,22.73
2018-02-17T02:28:17.214Z,24.53
2018-02-17T02:30:19.835Z,24.97
2018-02-17T02:32:22.428Z,25.33
2018-02-17T02:34:25.042Z,25.77
2018-02-17T02:36:27.708Z,27.30
2018-02-17T02:38:30.290Z,26.23
2018-02-17T02:40:32.901Z,24.93
2018-02-17T02:42:35.522Z,25.23
2018-02-17T02:44:38.151Z,26.07
2018-02-17T02:46:40.738Z,23.27
2018-02-17T02:48:43.333Z,22.70
2018-02-17T02:50:45.965Z,24.10
2018-02-17T02:52:48.556Z,25.43
2018-02-17T02:54:51.159Z,24.80
2018-02-17T02:56:53.779Z,24.67
2018-02-17T02:58:57.144Z,24.13
2018-02-17T03:00:59.752Z,25.10
2018-02-17T03:03:03.174Z,23.87
2018-02-17T03:05:05.762Z,25.03
2018-02-17T03:07:09.135Z,24.43
2018-02-17T03:09:11.737Z,23.83
2018-02-17T03:11:14.322Z,24.03
2018-02-17T03:13:16.947Z,25.53
2018-02-17T03:15:19.539Z,23.03
2018-02-17T03:17:22.125Z,24.07
2018-02-17T03:19:24.731Z,23.33
2018-02-17T03:21:27.349Z,25.63
2018-02-17T03:23:30.813Z,23.53
2018-02-17T03:25:33.413Z,24.03
2018-02-17T03:27:36.076Z,19.93
2018-02-17T03:29:39.454Z,17.57
2018-02-17T03:31:42.061Z,17.10
2018-02-17T03:33:44.671Z,16.97
2018-02-17T03:35:47.328Z,17.03
2018-02-17T03:37:49.934Z,16.63
2018-02-17T03:39:52.548Z,16.80
2018-02-17T03:41:55.919Z,17.17
2018-02-17T03:43:58.508Z,17.70
2018-02-17T03:46:01.903Z,17.20
2018-02-17T03:48:05.278Z,16.87
2018-02-17T03:50:08.702Z,17.73
2018-02-17T03:52:11.359Z,17.07
2018-02-17T03:54:14.727Z,19.47
2018-02-17T03:56:17.335Z,20.43
2018-02-17T03:58:20.682Z,19.47
2018-02-17T04:00:23.270Z,19.93
2018-02-17T04:02:25.881Z,19.33
2018-02-17T04:04:28.497Z,20.47
2018-02-17T04:06:31.112Z,19.07
2018-02-17T04:08:34.465Z,18.20
2018-02-17T04:10:37.057Z,19.47
2018-02-17T04:12:39.668Z,19.37
2018-02-17T04:14:42.250Z,20.07
2018-02-17T04:16:44.855Z,20.47
2018-02-17T04:18:47.454Z,20.43
2018-02-17T04:20:50.036Z,21.33
2018-02-17T04:22:53.387Z,20.53
2018-02-17T04:24:56.013Z,22.70
2018-02-17T04:26:59.442Z,23.00
2018-02-17T04:29:02.035Z,21.50
2018-02-17T04:31:04.644Z,22.80
2018-02-17T04:33:08.046Z,22.10
2018-02-17T04:35:11.417Z,22.77
2018-02-17T04:37:14.033Z,23.23
2018-02-17T04:39:16.646Z,23.50
2018-02-17T04:43:57.858Z,23.67
2018-02-17T04:46:16.220Z,22.23
2018-02-17T04:48:25.227Z,23.27
2018-02-17T04:50:37.733Z,22.37
2018-02-17T04:52:55.081Z,22.47
2018-02-17T04:55:04.043Z,22.63
2018-02-17T04:57:12.297Z,22.50
2018-02-17T04:59:21.246Z,22.03
2018-02-17T05:01:38.729Z,22.83
2018-02-17T05:03:44.236Z,22.00
2018-02-17T05:06:02.459Z,23.13
2018-02-17T05:08:07.565Z,21.93
2018-02-17T05:10:10.925Z,23.40
2018-02-17T05:12:13.518Z,24.80
2018-02-17T05:14:26.009Z,23.20
2018-02-17T05:16:49.373Z,23.97
2018-02-17T05:18:54.566Z,24.93
2018-02-17T05:20:57.973Z,25.27
2018-02-17T05:23:01.337Z,23.73
2018-02-17T05:25:06.820Z,26.10
2018-02-17T05:27:14.346Z,24.80
2018-02-17T05:29:17.694Z,25.47
2018-02-17T05:31:20.309Z,24.00
2018-02-17T05:33:27.320Z,25.73
2018-02-17T05:35:33.101Z,26.47
2018-02-17T05:37:35.726Z,25.63
2018-02-17T05:39:40.878Z,27.87
2018-02-17T05:41:43.470Z,27.97
2018-02-17T05:43:46.059Z,29.57
2018-02-17T05:45:55.165Z,25.47
2018-02-17T05:47:59.181Z,25.57
2018-02-17T05:50:01.782Z,23.70
2018-02-17T05:52:04.372Z,22.97
2018-02-17T05:54:07.773Z,22.17
2018-02-17T05:56:10.407Z,22.47
2018-02-17T05:58:13.062Z,22.73
2018-02-17T06:00:15.645Z,24.07
2018-02-17T06:02:18.257Z,24.03
2018-02-17T06:04:21.613Z,25.67
2018-02-17T06:06:24.978Z,25.63
2018-02-17T06:08:27.652Z,29.33
2018-02-17T06:10:30.238Z,25.23
2018-02-17T06:12:32.852Z,23.47
2018-02-17T06:14:35.477Z,23.73
2018-02-17T06:16:38.071Z,22.33
2018-02-17T06:18:40.669Z,23.93
2018-02-17T06:20:43.281Z,23.07
2018-02-17T06:22:45.860Z,24.30
2018-02-17T06:24:48.462Z,24.53
2018-02-17T06:26:51.061Z,25.77
2018-02-17T06:28:54.451Z,25.80
2018-02-17T06:30:57.954Z,24.13
2018-02-17T06:33:00.546Z,24.93
2018-02-17T06:35:03.959Z,26.00
2018-02-17T06:37:06.544Z,25.90
2018-02-17T06:39:09.120Z,24.67
2018-02-17T06:41:11.729Z,25.77
2018-02-17T06:43:14.314Z,26.17
2018-02-17T06:45:16.933Z,26.17
2018-02-17T06:47:19.598Z,27.63
2018-02-17T06:49:22.190Z,25.13
2018-02-17T06:51:24.802Z,24.43
2018-02-17T06:53:27.397Z,25.67
2018-02-17T06:55:29.997Z,27.30
2018-02-17T06:57:32.588Z,26.40
2018-02-17T06:59:35.170Z,25.27
2018-02-17T07:01:37.793Z,26.67
2018-02-17T07:03:41.141Z,26.80
2018-02-17T07:05:43.755Z,28.50
2018-02-17T07:07:46.352Z,28.73
2018-02-17T07:09:49.708Z,29.60
2018-02-17T07:11:52.318Z,31.70
2018-02-17T07:13:54.946Z,28.50
2018-02-17T07:15:57.526Z,27.50
2018-02-17T07:18:00.126Z,26.33
2018-02-17T07:20:03.480Z,26.03
2018-02-17T07:22:06.078Z,24.70
2018-02-17T07:24:08.705Z,24.50
2018-02-17T07:26:11.442Z,24.07
2018-02-17T07:28:18.494Z,25.27
2018-02-17T07:30:22.131Z,25.83
2018-02-17T07:32:38.387Z,27.37
2018-02-17T07:34:41.221Z,25.50
2018-02-17T07:36:43.805Z,24.90
2018-02-17T07:38:46.429Z,24.00
2018-02-17T07:40:49.019Z,23.00
2018-02-17T07:42:55.046Z,25.17
2018-02-17T07:44:57.793Z,24.13
2018-02-17T07:47:00.472Z,24.57
2018-02-17T07:49:03.066Z,24.93
2018-02-17T07:51:05.711Z,25.40
2018-02-17T07:53:08.314Z,23.37
2018-02-17T07:55:10.934Z,23.37
2018-02-17T07:57:14.361Z,23.73
2018-02-17T07:59:16.951Z,24.50
2018-02-17T08:01:19.604Z,24.80
2018-02-17T08:03:26.426Z,23.93
2018-02-17T08:05:29.389Z,23.07
2018-02-17T08:07:39.413Z,22.97
2018-02-17T08:09:42.344Z,25.43
2018-02-17T08:11:45.145Z,27.23
2018-02-17T08:13:48.493Z,24.27
2018-02-17T08:15:51.096Z,28.67
2018-02-17T08:17:54.636Z,24.83
2018-02-17T08:19:57.227Z,25.73
2018-02-17T08:21:59.917Z,23.93
2018-02-17T08:24:02.503Z,30.40
2018-02-17T08:26:05.130Z,37.10
2018-02-17T08:28:10.609Z,37.00
2018-02-17T08:30:13.202Z,26.83
2018-02-17T08:32:15.799Z,23.63
2018-02-17T08:34:18.377Z,21.83
2018-02-17T08:36:20.967Z,21.93
2018-02-17T08:38:23.563Z,21.20
2018-02-17T08:40:26.140Z,22.50
2018-02-17T08:42:29.514Z,21.13
2018-02-17T08:44:32.112Z,21.73
2018-02-17T08:46:34.694Z,26.20
2018-02-17T08:48:41.158Z,20.80
2018-02-17T08:50:50.493Z,20.00
2018-02-17T08:52:59.407Z,20.87
2018-02-17T08:55:02.294Z,20.57
2018-02-17T08:57:04.903Z,20.40
2018-02-17T08:59:08.276Z,19.83
2018-02-17T09:01:10.901Z,21.13
2018-02-17T09:03:13.495Z,20.43
2018-02-17T09:05:16.091Z,20.93
2018-02-17T09:07:18.712Z,19.90
2018-02-17T09:09:21.309Z,20.87
2018-02-17T09:11:23.908Z,19.53
2018-02-17T09:13:26.502Z,18.80
2018-02-17T09:15:29.899Z,19.00
2018-02-17T09:17:33.314Z,18.97
2018-02-17T09:19:35.897Z,18.40
2018-02-17T09:21:38.499Z,19.37
2018-02-17T09:23:41.106Z,17.33
2018-02-17T09:25:43.705Z,18.63
2018-02-17T09:27:46.325Z,19.37
2018-02-17T09:29:49.177Z,18.60
2018-02-17T09:31:51.771Z,18.43
2018-02-17T09:33:54.366Z,19.87
2018-02-17T09:35:56.989Z,21.07
2018-02-17T09:37:59.593Z,18.30
2018-02-17T09:40:02.237Z,17.13
2018-02-17T09:42:04.835Z,18.57
2018-02-17T09:44:07.423Z,18.60
2018-02-17T09:46:10.038Z,17.83
2018-02-17T09:48:12.625Z,17.73
2018-02-17T09:50:16.000Z,18.80
2018-02-17T09:52:18.600Z,19.27
2018-02-17T09:54:21.205Z,19.17
2018-02-17T09:56:23.817Z,20.47
2018-02-17T09:58:26.401Z,19.17
2018-02-17T10:00:29.777Z,18.70
2018-02-17T10:02:32.397Z,18.00
2018-02-17T10:04:35.024Z,18.43
2018-02-17T10:06:37.610Z,18.20
2018-02-17T10:08:40.194Z,18.63
2018-02-17T10:10:43.585Z,16.83
2018-02-17T10:12:46.961Z,18.20
2018-02-17T10:14:49.581Z,18.40
2018-02-17T10:16:52.171Z,17.73
2018-02-17T10:18:54.775Z,18.23
2018-02-17T10:20:57.396Z,17.87
2018-02-17T10:23:00.546Z,18.70
2018-02-17T10:25:03.134Z,16.90
2018-02-17T10:27:06.530Z,17.17
2018-02-17T10:29:10.126Z,18.40
2018-02-17T10:31:13.509Z,17.57
2018-02-17T10:33:16.155Z,16.70
2018-02-17T10:35:18.766Z,19.07
2018-02-17T10:37:22.189Z,20.73
2018-02-17T10:39:24.790Z,19.20
2018-02-17T10:41:28.174Z,16.97
2018-02-17T10:43:30.787Z,17.13
2018-02-17T10:45:33.529Z,17.10
2018-02-17T10:47:36.120Z,19.37
2018-02-17T10:49:38.904Z,18.60
2018-02-17T10:51:41.501Z,20.30
2018-02-17T10:53:44.106Z,20.30
2018-02-17T10:55:46.762Z,19.60
2018-02-17T10:57:50.269Z,19.30
2018-02-17T10:59:52.864Z,16.90
2018-02-17T11:01:55.489Z,17.20
2018-02-17T11:03:58.296Z,17.73
2018-02-17T11:06:02.014Z,18.20
2018-02-17T11:08:04.707Z,17.87
2018-02-17T11:10:07.497Z,20.57
2018-02-17T11:12:10.194Z,16.70
2018-02-17T11:14:13.550Z,16.70
2018-02-17T11:16:16.157Z,16.17
2018-02-17T11:18:18.880Z,15.57
2018-02-17T11:20:21.502Z,15.37
2018-02-17T11:22:24.115Z,15.57
2018-02-17T11:24:26.728Z,16.07
2018-02-17T11:26:30.697Z,17.13
2018-02-17T11:28:34.098Z,15.00
2018-02-17T11:30:36.686Z,15.60
2018-02-17T11:32:39.309Z,15.00
2018-02-17T11:34:42.070Z,15.27
2018-02-17T11:36:44.666Z,14.37
2018-02-17T11:38:47.270Z,14.67
2018-02-17T11:40:51.099Z,15.07
2018-02-17T11:42:53.722Z,13.47
2018-02-17T11:44:56.349Z,15.60
2018-02-17T11:46:59.005Z,17.40
2018-02-17T11:49:01.628Z,31.53
2018-02-17T11:51:04.213Z,35.60
2018-02-17T11:53:06.850Z,64.27
2018-02-17T11:55:09.494Z,79.70
2018-02-17T11:57:12.090Z,31.17
2018-02-17T11:59:15.060Z,25.30
2018-02-17T12:01:17.645Z,17.37
2018-02-17T12:03:20.339Z,15.30
2018-02-17T12:05:22.960Z,16.40
2018-02-17T12:07:26.334Z,15.17
2018-02-17T12:09:28.950Z,14.63
2018-02-17T12:11:31.626Z,13.30
2018-02-17T12:13:34.423Z,13.83
2018-02-17T12:15:37.045Z,14.57
2018-02-17T12:17:39.912Z,12.63
2018-02-17T12:19:42.547Z,12.67
2018-02-17T12:21:45.130Z,11.00
2018-02-17T12:23:47.749Z,11.57
2018-02-17T12:25:50.361Z,13.03
2018-02-17T12:27:53.039Z,12.17
2018-02-17T12:29:55.665Z,10.83
2018-02-17T12:31:58.269Z,10.23
2018-02-17T12:34:01.671Z,10.40
2018-02-17T12:36:04.290Z,10.40
2018-02-17T12:38:06.879Z,10.33
2018-02-17T12:40:09.466Z,10.13
2018-02-17T12:42:12.865Z,9.40
2018-02-17T12:44:16.224Z,10.13
2018-02-17T12:46:18.804Z,9.67
2018-02-17T12:48:21.433Z,9.00
2018-02-17T12:50:24.023Z,9.77
2018-02-17T12:52:26.672Z,10.90
2018-02-17T12:54:30.051Z,11.63
2018-02-17T12:56:33.474Z,9.60
2018-02-17T12:58:36.099Z,11.10
2018-02-17T13:00:38.687Z,10.20
2018-02-17T13:02:41.269Z,10.43
2018-02-17T13:04:44.640Z,11.73
2018-02-17T13:06:47.251Z,10.13
2018-02-17T13:08:52.427Z,9.60
2018-02-17T13:10:55.047Z,10.50
2018-02-17T13:12:58.421Z,9.77
2018-02-17T13:15:01.021Z,9.37
2018-02-17T13:17:04.542Z,9.87
2018-02-17T13:19:07.232Z,9.23
2018-02-17T13:21:09.817Z,9.50
2018-02-17T13:23:12.406Z,9.90
2018-02-17T13:25:15.010Z,9.10
2018-02-17T13:27:18.403Z,11.87
2018-02-17T13:29:21.795Z,11.07
2018-02-17T13:31:25.162Z,11.07
2018-02-17T13:33:27.764Z,10.63
2018-02-17T13:35:31.272Z,8.93
2018-02-17T13:37:33.865Z,9.47
2018-02-17T13:39:36.469Z,9.00
2018-02-17T13:41:39.093Z,9.43
2018-02-17T13:43:41.825Z,8.60
2018-02-17T13:45:44.434Z,8.60
2018-02-17T13:47:47.805Z,8.03
2018-02-17T13:49:50.401Z,7.60
2018-02-17T13:51:53.774Z,9.33
2018-02-17T13:53:56.371Z,9.50
2018-02-17T13:55:59.791Z,9.60
2018-02-17T13:58:02.363Z,9.27
2018-02-17T14:00:04.956Z,7.63
2018-02-17T14:02:07.586Z,8.47
2018-02-17T14:04:10.964Z,9.37
2018-02-17T14:06:13.557Z,8.80
2018-02-17T14:08:16.163Z,7.90
2018-02-17T14:10:18.763Z,6.80
2018-02-17T14:12:21.484Z,6.43
2018-02-17T14:14:24.104Z,6.20
2018-02-17T14:16:26.712Z,7.03
2018-02-17T14:18:30.082Z,10.13
2018-02-17T14:20:32.666Z,9.00
2018-02-17T14:22:35.267Z,11.63
2018-02-17T14:24:38.665Z,6.53
2018-02-17T14:26:41.294Z,7.83
2018-02-17T14:28:43.901Z,6.70
2018-02-17T14:30:47.268Z,6.47
2018-02-17T14:32:49.901Z,6.70
2018-02-17T14:34:53.251Z,7.57
2018-02-17T14:36:55.853Z,7.63
2018-02-17T14:38:58.469Z,7.67
2018-02-17T14:41:01.082Z,7.80
2018-02-17T14:43:04.442Z,7.60
2018-02-17T14:45:07.046Z,7.60
2018-02-17T14:47:10.406Z,8.43
2018-02-17T14:49:13.025Z,8.37
2018-02-17T14:51:16.521Z,8.13
2018-02-17T14:53:19.887Z,8.80
2018-02-17T14:55:22.509Z,8.63
2018-02-17T14:57:25.089Z,9.60
2018-02-17T14:59:27.672Z,9.90
2018-02-17T15:01:30.291Z,9.97
2018-02-17T15:03:32.885Z,9.73
2018-02-17T15:05:36.296Z,10.03
2018-02-17T15:07:38.907Z,9.93
2018-02-17T15:09:41.503Z,10.93
2018-02-17T15:11:44.145Z,9.33
2018-02-17T15:13:46.745Z,10.20
2018-02-17T15:15:49.352Z,10.03
2018-02-17T15:17:52.807Z,10.43
2018-02-17T15:19:55.393Z,9.03
2018-02-17T15:21:57.981Z,9.37
2018-02-17T15:24:05.293Z,10.03
2018-02-17T15:26:08.146Z,11.27
2018-02-17T15:28:11.493Z,8.83
2018-02-17T15:30:14.260Z,8.70
2018-02-17T15:32:16.841Z,9.33
2018-02-17T15:34:19.459Z,8.37
2018-02-17T15:36:22.826Z,7.07
2018-02-17T15:38:26.204Z,8.03
2018-02-17T15:40:28.842Z,7.10
2018-02-17T15:42:31.432Z,6.30
2018-02-17T15:44:34.033Z,6.40
2018-02-17T15:46:37.385Z,7.03
2018-02-17T15:48:40.043Z,5.63
2018-02-17T15:50:43.415Z,5.47
2018-02-17T15:52:46.000Z,4.60
2018-02-17T15:54:48.611Z,5.03
2018-02-17T15:56:51.216Z,4.93
2018-02-17T15:58:54.607Z,4.33
2018-02-17T16:01:01.778Z,4.13
2018-02-17T16:03:04.354Z,3.20
2018-02-17T16:05:06.948Z,3.93
2018-02-17T16:07:09.602Z,3.67
2018-02-17T16:09:12.574Z,3.60
2018-02-17T16:11:15.239Z,3.43
2018-02-17T16:13:17.827Z,3.77
2018-02-17T16:15:21.624Z,4.00
2018-02-17T16:17:24.239Z,4.33
2018-02-17T16:19:26.841Z,4.17
2018-02-17T16:21:30.234Z,5.70
2018-02-17T16:23:33.611Z,5.07
2018-02-17T16:25:36.198Z,5.53
2018-02-17T16:27:39.561Z,4.47
2018-02-17T16:29:42.150Z,5.60
2018-02-17T16:31:44.732Z,5.47
2018-02-17T16:33:48.139Z,6.80
2018-02-17T16:35:51.586Z,7.17
2018-02-17T16:37:54.173Z,9.37
2018-02-17T16:39:56.797Z,10.90
2018-02-17T16:41:59.390Z,7.83
2018-02-17T16:44:02.026Z,11.30
2018-02-17T16:46:05.412Z,8.03
2018-02-17T16:48:09.063Z,12.13
2018-02-17T16:50:11.677Z,10.63
2018-02-17T16:52:14.324Z,12.03
2018-02-17T16:54:16.914Z,9.73
2018-02-17T16:56:19.523Z,10.77
2018-02-17T16:58:22.569Z,9.63
2018-02-17T17:00:25.154Z,9.53
2018-02-17T17:02:27.809Z,8.83
2018-02-17T17:04:30.593Z,9.03
2018-02-17T17:06:33.249Z,8.77
2018-02-17T17:08:35.866Z,9.77
2018-02-17T17:10:39.250Z,9.70
2018-02-17T17:12:42.762Z,10.93
2018-02-17T17:14:45.361Z,9.97
2018-02-17T17:16:47.968Z,11.80
2018-02-17T17:18:50.577Z,10.87
2018-02-17T17:20:53.933Z,13.50
2018-02-17T17:22:56.529Z,11.93
2018-02-17T17:24:59.122Z,11.23
2018-02-17T17:27:02.529Z,10.83
2018-02-17T17:29:05.136Z,11.03
2018-02-17T17:31:07.727Z,12.10
2018-02-17T17:33:10.450Z,12.43
2018-02-17T17:35:13.828Z,13.10
2018-02-17T17:37:16.445Z,12.23
2018-02-17T17:39:19.045Z,14.27
2018-02-17T17:41:21.640Z,16.53
2018-02-17T17:43:25.034Z,16.23
2018-02-17T17:45:28.119Z,16.70
2018-02-17T17:47:30.726Z,18.73
2018-02-17T17:49:33.347Z,18.50
2018-02-17T17:51:38.834Z,21.57
2018-02-17T17:53:41.434Z,14.43
2018-02-17T17:55:44.171Z,18.00
2018-02-17T17:57:52.339Z,15.60
2018-02-17T17:59:55.948Z,15.17
2018-02-17T18:01:59.511Z,17.33
2018-02-17T18:04:04.262Z,22.50
2018-02-17T18:06:07.284Z,25.90
2018-02-17T18:08:11.920Z,18.57
2018-02-17T18:10:14.798Z,17.37
2018-02-17T18:12:18.472Z,17.67
2018-02-17T18:14:21.094Z,17.03
2018-02-17T18:16:23.712Z,16.77
2018-02-17T18:18:26.307Z,21.57
2018-02-17T18:20:29.718Z,19.43
2018-02-17T18:22:33.135Z,18.20
2018-02-17T18:24:35.982Z,18.07
2018-02-17T18:26:39.386Z,23.57
2018-02-17T18:28:41.981Z,30.33
2018-02-17T18:30:44.605Z,22.57
2018-02-17T18:32:47.514Z,19.00
2018-02-17T18:34:54.971Z,16.43
2018-02-17T18:36:58.512Z,18.83
2018-02-17T18:39:01.818Z,17.07
2018-02-17T18:41:04.838Z,17.40
2018-02-17T18:43:07.829Z,13.77
2018-02-17T18:45:10.862Z,18.37
2018-02-17T18:47:15.205Z,15.63
2018-02-17T18:49:18.592Z,18.90
2018-02-17T18:51:21.228Z,15.53
2018-02-17T18:53:24.400Z,17.53
2018-02-17T18:55:27.770Z,21.03
2018-02-17T18:57:30.356Z,24.40
2018-02-17T18:59:33.763Z,31.70
2018-02-17T19:01:37.162Z,18.83
2018-02-17T19:03:39.801Z,16.80
2018-02-17T19:05:42.410Z,17.13
2018-02-17T19:07:45.791Z,16.17
2018-02-17T19:09:49.161Z,16.93
2018-02-17T19:11:51.769Z,24.57
2018-02-17T19:13:57.015Z,17.23
2018-02-17T19:15:59.687Z,15.43
2018-02-17T19:18:02.297Z,16.90
2018-02-17T19:20:04.894Z,15.73
2018-02-17T19:22:07.491Z,13.30
2018-02-17T19:24:10.881Z,13.87
2018-02-17T19:26:14.266Z,13.40
2018-02-17T19:28:16.910Z,13.53
2018-02-17T19:30:19.479Z,14.80
2018-02-17T19:32:22.082Z,13.43
2018-02-17T19:34:25.212Z,13.63
2018-02-17T19:36:27.812Z,14.43
2018-02-17T19:38:30.425Z,14.87
2018-02-17T19:40:33.048Z,15.23
2018-02-17T19:42:35.629Z,15.17
2018-02-17T19:44:43.226Z,14.23
2018-02-17T19:46:45.815Z,14.70
2018-02-17T19:48:48.426Z,16.27
2018-02-17T19:50:51.429Z,15.33
2018-02-17T19:52:54.072Z,14.53
2018-02-17T19:54:57.496Z,14.83
2018-02-17T19:57:00.125Z,14.43
2018-02-17T19:59:02.725Z,15.97
2018-02-17T20:01:06.096Z,15.57
2018-02-17T20:03:08.714Z,15.57
2018-02-17T20:05:13.994Z,16.43
2018-02-17T20:07:16.599Z,15.73
2018-02-17T20:09:20.030Z,16.60
2018-02-17T20:11:22.639Z,16.07
2018-02-17T20:13:25.234Z,17.77
2018-02-17T20:15:27.850Z,19.20
2018-02-17T20:17:30.415Z,18.47
2018-02-17T20:19:33.028Z,17.33
2018-02-17T20:21:35.633Z,19.93
2018-02-17T20:23:38.239Z,17.23
2018-02-17T20:25:40.821Z,20.80
2018-02-17T20:27:43.535Z,20.83
2018-02-17T20:29:49.148Z,21.00
2018-02-17T20:31:51.766Z,19.90
2018-02-17T20:33:54.357Z,21.37
2018-02-17T20:35:57.731Z,22.67
2018-02-17T20:38:00.335Z,19.87
2018-02-17T20:40:03.796Z,21.80
2018-02-17T20:42:08.092Z,21.50
2018-02-17T20:44:12.006Z,24.97
2018-02-17T20:46:14.602Z,24.13
2018-02-17T20:48:17.229Z,28.80
2018-02-17T20:50:19.818Z,41.87
2018-02-17T20:52:22.525Z,21.57
2018-02-17T20:54:25.335Z,21.90
2018-02-17T20:56:27.945Z,25.93
2018-02-17T20:58:30.561Z,29.37
2018-02-17T21:00:33.195Z,31.27
2018-02-17T21:02:35.873Z,32.73
2018-02-17T21:04:38.451Z,28.63
2018-02-17T21:06:41.054Z,21.10
2018-02-17T21:08:43.977Z,21.63
2018-02-17T21:10:46.665Z,21.13
2018-02-17T21:12:49.273Z,23.17
2018-02-17T21:14:51.876Z,21.50
2018-02-17T21:16:55.254Z,26.10
2018-02-17T21:18:58.223Z,23.63
2018-02-17T21:21:00.869Z,31.60
2018-02-17T21:23:03.485Z,24.70
2018-02-17T21:25:09.363Z,22.20
2018-02-17T21:27:12.035Z,21.07
2018-02-17T21:29:15.456Z,20.80
2018-02-17T21:31:19.319Z,20.13
2018-02-17T21:33:22.760Z,21.67
2018-02-17T21:35:26.134Z,20.37
2018-02-17T21:37:28.759Z,21.60
2018-02-17T21:39:31.359Z,22.73
2018-02-17T21:41:34.715Z,22.00
2018-02-17T21:43:37.359Z,22.93
2018-02-17T21:45:39.974Z,23.37
2018-02-17T21:47:42.582Z,23.90
2018-02-17T21:49:45.967Z,23.63
2018-02-17T21:51:49.343Z,24.33
2018-02-17T21:53:51.962Z,22.67
2018-02-17T21:55:54.546Z,22.93
2018-02-17T21:57:57.923Z,23.40
2018-02-17T22:00:00.560Z,21.73
2018-02-17T22:02:03.892Z,22.87
2018-02-17T22:04:06.502Z,22.17
2018-02-17T22:06:09.089Z,22.23
2018-02-17T22:08:11.689Z,22.80
2018-02-17T22:10:15.082Z,23.17
2018-02-17T22:12:18.433Z,21.60
2018-02-17T22:14:21.051Z,23.20
2018-02-17T22:16:24.443Z,21.40
2018-02-17T22:18:27.813Z,21.93
2018-02-17T22:20:30.418Z,22.40
2018-02-17T22:22:33.053Z,20.87
2018-02-17T22:24:35.639Z,26.77
2018-02-17T22:26:38.265Z,22.17
2018-02-17T22:28:40.885Z,22.13
2018-02-17T22:30:43.501Z,21.60
2018-02-17T22:32:46.094Z,21.73
2018-02-17T22:34:48.806Z,22.80
2018-02-17T22:36:51.398Z,21.80
2018-02-17T22:38:58.757Z,23.83
2018-02-17T22:41:02.203Z,22.73
2018-02-17T22:43:04.769Z,22.33
2018-02-17T22:45:08.416Z,23.43
2018-02-17T22:47:11.001Z,23.47
2018-02-17T22:49:13.610Z,22.90
2018-02-17T22:51:16.981Z,23.60
2018-02-17T22:53:19.573Z,23.67
2018-02-17T22:55:22.966Z,23.73
2018-02-17T22:57:26.358Z,24.30
2018-02-17T22:59:29.730Z,23.60
2018-02-17T23:01:32.353Z,23.97
2018-02-17T23:03:34.978Z,26.47
2018-02-17T23:05:37.725Z,23.80
2018-02-17T23:07:40.255Z,24.23
2018-02-17T23:09:43.632Z,25.90
2018-02-17T23:11:46.246Z,26.00
2018-02-17T23:13:48.843Z,25.77
2018-02-17T23:15:51.528Z,27.23
2018-02-17T23:17:54.144Z,24.67
2018-02-17T23:19:57.504Z,25.70
2018-02-17T23:22:00.125Z,25.40
2018-02-17T23:24:02.727Z,26.23
2018-02-17T23:26:05.329Z,26.40
2018-02-17T23:28:07.955Z,25.23
2018-02-17T23:30:10.546Z,25.43
2018-02-17T23:32:13.938Z,26.03
2018-02-17T23:34:16.630Z,26.00
2018-02-17T23:36:19.307Z,26.33
2018-02-17T23:38:21.930Z,26.83
2018-02-17T23:40:25.296Z,24.73
2018-02-17T23:42:28.678Z,26.33
2018-02-17T23:44:31.282Z,30.27
2018-02-17T23:46:34.650Z,26.23
2018-02-17T23:48:37.274Z,27.40
2018-02-17T23:50:39.856Z,25.43
2018-02-17T23:52:42.441Z,26.47
2018-02-17T23:54:45.046Z,24.67
2018-02-17T23:56:47.641Z,25.60
2018-02-17T23:58:50.251Z,24.97
